Morrow, Louisiana
Current Conditions -  °F | °C
As of 6:55 AM on Friday 19 Dec 2014 (Local Time) from KOPL Reporting Station
Drizzle Drizzle  
Wind Chill: 53°   Ceiling: 200
Heat Index: 53°   Visibility: 10mi
Dew Point: 52°   Wind: 7mph
Humidity: 98%   Direction: 60°ENE
Pressure: 30.1"   Gusts: NA
Location:  30.83°N, 92.08°W
Report Text: KOPL 191255Z AUTO 06006KT 10SM -DZ OVC002 12/11 A3010 RMK AO2 LTG DSNT SW P0005 T01160113
Loading
Personal Weather Stations






























Interactive Weather Map New forecast layout! Learn more

10-Day Weather Forecast

Advertisements
Track Severe Weather on mobile